createdAt,value
2018-07-22T00:00:28.986Z,63.51
2018-07-22T00:02:33.893Z,63.02
2018-07-22T00:04:39.473Z,63.77
2018-07-22T00:06:44.289Z,63.07
2018-07-22T00:08:49.983Z,62.61
2018-07-22T00:10:55.374Z,62.56
2018-07-22T00:13:00.719Z,63.03
2018-07-22T00:15:07.370Z,63.05
2018-07-22T00:17:12.192Z,63.77
2018-07-22T00:19:16.973Z,63.38
2018-07-22T00:21:21.731Z,63.95
2018-07-22T00:23:26.945Z,65.05
2018-07-22T00:25:31.858Z,65.93
2018-07-22T00:27:37.437Z,64.91
2018-07-22T00:29:42.307Z,65.58
2018-07-22T00:31:47.743Z,65.52
2018-07-22T00:33:52.585Z,65.84
2018-07-22T00:35:57.521Z,65.33
2018-07-22T00:38:02.441Z,66.19
2018-07-22T00:40:08.365Z,65.61
2018-07-22T00:42:13.360Z,66.17
2018-07-22T00:44:18.152Z,66.50
2018-07-22T00:46:22.973Z,67.04
2018-07-22T00:48:27.822Z,67.14
2018-07-22T00:50:33.322Z,66.93
2018-07-22T00:52:38.407Z,67.40
2018-07-22T00:54:43.163Z,67.31
2018-07-22T00:56:48.132Z,66.57
2018-07-22T00:58:52.946Z,66.44
2018-07-22T01:00:57.650Z,66.67
2018-07-22T01:03:02.427Z,67.23
2018-07-22T01:05:07.774Z,67.30
2018-07-22T01:07:12.549Z,67.56
2018-07-22T01:09:17.394Z,67.83
2018-07-22T01:11:22.149Z,67.02
2018-07-22T01:13:26.956Z,67.35
2018-07-22T01:15:31.801Z,67.24
2018-07-22T01:17:36.662Z,66.69
2018-07-22T01:19:41.198Z,66.15
2018-07-22T01:21:46.164Z,66.55
2018-07-22T01:23:51.100Z,66.85
2018-07-22T01:25:55.934Z,67.73
2018-07-22T01:28:00.778Z,67.53
2018-07-22T01:30:07.408Z,67.68
2018-07-22T01:32:12.134Z,67.77
2018-07-22T01:34:16.943Z,67.88
2018-07-22T01:36:21.663Z,67.26
2018-07-22T01:38:26.377Z,68.13
2018-07-22T01:40:31.273Z,67.45
2018-07-22T01:42:35.978Z,67.69
2018-07-22T01:44:40.719Z,66.71
2018-07-22T01:46:45.556Z,67.52
2018-07-22T01:51:06.089Z,67.49
2018-07-22T01:53:10.785Z,68.03
2018-07-22T01:55:15.647Z,68.72
2018-07-22T01:57:20.481Z,68.64
2018-07-22T01:59:25.391Z,67.58
2018-07-22T02:01:30.159Z,67.63
2018-07-22T02:03:35.178Z,68.05
2018-07-22T02:05:41.018Z,69.20
2018-07-22T02:07:45.823Z,69.14
2018-07-22T02:09:50.673Z,67.95
2018-07-22T02:11:55.665Z,69.10
2018-07-22T02:14:00.589Z,67.69
2018-07-22T02:16:05.399Z,67.58
2018-07-22T02:18:11.939Z,68.35
2018-07-22T02:20:17.042Z,68.42
2018-07-22T02:22:21.772Z,68.23
2018-07-22T02:24:26.467Z,67.79
2018-07-22T02:26:31.324Z,70.33
2018-07-22T02:28:36.311Z,69.53
2018-07-22T02:30:41.260Z,68.73
2018-07-22T02:32:46.237Z,69.50
2018-07-22T02:34:51.120Z,69.92
2018-07-22T02:36:55.973Z,70.20
2018-07-22T02:39:00.716Z,70.27
2018-07-22T02:41:05.678Z,70.27
2018-07-22T02:43:10.575Z,70.58
2018-07-22T02:45:15.320Z,70.97
2018-07-22T02:47:29.130Z,70.21
2018-07-22T02:49:33.856Z,70.44
2018-07-22T02:51:38.858Z,71.28
2018-07-22T02:53:43.636Z,70.53
2018-07-22T02:55:48.470Z,71.43
2018-07-22T02:57:53.309Z,70.62
2018-07-22T02:59:58.120Z,70.76
2018-07-22T03:02:02.922Z,70.37
2018-07-22T03:04:09.010Z,70.88
2018-07-22T03:06:14.046Z,69.15
2018-07-22T03:08:19.426Z,68.87
2018-07-22T03:10:25.389Z,68.58
2018-07-22T03:12:30.246Z,67.71
2018-07-22T03:14:35.141Z,68.53
2018-07-22T03:16:39.908Z,68.25
2018-07-22T03:18:44.944Z,69.20
2018-07-22T03:20:49.780Z,69.76
2018-07-22T03:22:54.526Z,69.14
2018-07-22T03:24:59.237Z,70.56
2018-07-22T03:27:03.962Z,70.92
2018-07-22T03:29:08.717Z,70.81
2018-07-22T03:31:13.556Z,69.78
2018-07-22T03:33:18.411Z,69.53
2018-07-22T03:35:23.285Z,69.72
2018-07-22T03:37:28.142Z,70.28
2018-07-22T03:39:32.865Z,70.69
2018-07-22T03:41:37.590Z,69.24
2018-07-22T03:43:42.368Z,69.81
2018-07-22T03:45:47.186Z,68.41
2018-07-22T03:47:51.945Z,69.73
2018-07-22T03:49:56.723Z,70.91
2018-07-22T03:52:01.818Z,70.54
2018-07-22T03:54:06.632Z,71.43
2018-07-22T03:56:11.409Z,70.87
2018-07-22T03:58:16.304Z,71.38
2018-07-22T04:00:21.145Z,69.93
2018-07-22T04:02:25.836Z,71.83
2018-07-22T04:04:30.605Z,71.96
2018-07-22T04:06:36.419Z,72.18
2018-07-22T04:08:41.456Z,72.48
2018-07-22T04:10:46.489Z,71.92
2018-07-22T04:12:51.219Z,71.68
2018-07-22T04:14:56.354Z,71.27
2018-07-22T04:17:01.109Z,71.61
2018-07-22T04:19:05.835Z,72.10
2018-07-22T04:21:10.668Z,72.10
2018-07-22T04:23:15.457Z,72.10
2018-07-22T04:25:20.164Z,72.03
2018-07-22T04:27:24.994Z,71.98
2018-07-22T04:29:29.854Z,72.59
2018-07-22T04:31:35.074Z,71.53
2018-07-22T04:33:39.900Z,71.72
2018-07-22T04:35:44.860Z,72.61
2018-07-22T04:37:49.553Z,71.90
2018-07-22T04:39:54.530Z,71.73
2018-07-22T04:41:59.458Z,72.81
2018-07-22T04:44:04.168Z,72.92
2018-07-22T04:46:09.059Z,73.92
2018-07-22T04:48:13.920Z,73.91
2018-07-22T04:50:18.853Z,73.21
2018-07-22T04:52:23.705Z,73.43
2018-07-22T04:54:28.468Z,73.02
2018-07-22T04:56:33.467Z,73.45
2018-07-22T04:58:38.218Z,73.30
2018-07-22T05:00:43.105Z,73.05
2018-07-22T05:02:47.913Z,74.32
2018-07-22T05:04:52.785Z,73.74
2018-07-22T05:06:57.629Z,74.18
2018-07-22T05:09:02.394Z,73.87
2018-07-22T05:11:08.176Z,74.15
2018-07-22T05:13:12.964Z,74.95
2018-07-22T05:15:17.922Z,75.07
2018-07-22T05:17:23.545Z,73.70
2018-07-22T05:19:28.336Z,74.08
2018-07-22T05:21:33.051Z,75.02
2018-07-22T05:23:37.895Z,75.05
2018-07-22T05:25:42.806Z,74.46
2018-07-22T05:27:47.551Z,74.25
2018-07-22T05:29:52.304Z,73.48
2018-07-22T05:31:57.234Z,74.23
2018-07-22T05:34:02.351Z,74.56
2018-07-22T05:36:07.869Z,74.66
2018-07-22T05:38:12.917Z,74.08
2018-07-22T05:40:17.643Z,72.92
2018-07-22T05:42:22.543Z,74.25
2018-07-22T05:44:27.673Z,75.02
2018-07-22T05:46:32.734Z,74.45
2018-07-22T05:48:38.173Z,75.25
2018-07-22T05:50:43.655Z,75.55
2018-07-22T05:52:49.634Z,75.21
2018-07-22T05:54:54.480Z,74.44
2018-07-22T05:56:59.386Z,74.30
2018-07-22T05:59:04.437Z,74.76
2018-07-22T06:01:13.505Z,75.00
2018-07-22T06:03:18.576Z,72.91
2018-07-22T06:05:23.330Z,74.02
2018-07-22T06:07:28.235Z,73.28
2018-07-22T06:09:33.020Z,74.15
2018-07-22T06:11:38.081Z,74.06
2018-07-22T06:13:44.090Z,73.15
2018-07-22T06:15:49.089Z,72.98
2018-07-22T06:17:53.861Z,73.34
2018-07-22T06:19:58.795Z,73.34
2018-07-22T06:22:03.499Z,72.67
2018-07-22T06:24:08.559Z,73.79
2018-07-22T06:26:13.428Z,72.24
2018-07-22T06:30:18.474Z,73.40
2018-07-22T06:32:23.505Z,73.43
2018-07-22T06:34:28.386Z,72.43
2018-07-22T06:36:34.070Z,73.34
2018-07-22T06:38:38.849Z,73.64
2018-07-22T06:40:43.971Z,71.42
2018-07-22T06:42:48.875Z,71.46
2018-07-22T06:44:54.020Z,69.79
2018-07-22T06:46:58.793Z,70.71
2018-07-22T06:49:03.705Z,69.84
2018-07-22T06:51:08.540Z,71.52
2018-07-22T06:53:13.671Z,69.93
2018-07-22T06:55:18.759Z,70.18
2018-07-22T06:57:23.798Z,69.20
2018-07-22T06:59:28.936Z,70.07
2018-07-22T07:01:34.250Z,69.38
2018-07-22T07:03:39.247Z,69.28
2018-07-22T07:05:43.703Z,70.32
2018-07-22T07:07:49.432Z,68.84
2018-07-22T07:09:54.232Z,69.11
2018-07-22T07:11:59.034Z,69.77
2018-07-22T07:14:03.913Z,68.19
2018-07-22T07:16:08.759Z,67.72
2018-07-22T07:18:13.549Z,68.58
2018-07-22T07:20:18.328Z,68.65
2018-07-22T07:22:23.639Z,68.53
2018-07-22T07:24:28.389Z,67.20
2018-07-22T07:26:33.183Z,66.33
2018-07-22T07:28:38.701Z,65.02
2018-07-22T07:30:43.720Z,65.60
2018-07-22T07:32:48.619Z,65.97
2018-07-22T07:34:53.364Z,64.36
2018-07-22T07:36:58.197Z,65.03
2018-07-22T07:39:03.084Z,64.83
2018-07-22T07:41:08.277Z,64.38
2018-07-22T07:43:13.149Z,63.98
2018-07-22T07:45:17.822Z,63.31
2018-07-22T07:47:24.583Z,62.47
2018-07-22T07:49:29.390Z,61.67
2018-07-22T07:51:34.594Z,61.17
2018-07-22T07:53:39.518Z,60.79
2018-07-22T07:55:44.332Z,60.44
2018-07-22T07:57:49.130Z,60.36
2018-07-22T07:59:54.874Z,60.32
2018-07-22T08:01:59.913Z,60.40
2018-07-22T08:04:04.790Z,58.23
2018-07-22T08:06:09.844Z,59.65
2018-07-22T08:08:14.631Z,59.92
2018-07-22T08:10:19.480Z,58.83
2018-07-22T08:12:24.271Z,58.83
2018-07-22T08:14:29.340Z,59.42
2018-07-22T08:16:35.034Z,58.57
2018-07-22T08:18:39.967Z,58.09
2018-07-22T08:20:44.783Z,57.80
2018-07-22T08:22:49.609Z,57.38
2018-07-22T08:24:54.406Z,55.22
2018-07-22T08:26:59.285Z,55.61
2018-07-22T08:29:29.214Z,54.70
2018-07-22T08:31:34.036Z,54.45
2018-07-22T08:33:38.820Z,53.10
2018-07-22T08:35:43.684Z,54.14
2018-07-22T08:37:49.264Z,53.63
2018-07-22T08:39:55.364Z,52.76
2018-07-22T08:42:00.470Z,54.07
2018-07-22T08:44:05.328Z,53.81
2018-07-22T08:46:10.267Z,53.55
2018-07-22T08:48:15.165Z,52.86
2018-07-22T08:50:20.193Z,52.44
2018-07-22T08:52:24.953Z,52.07
2018-07-22T08:54:30.499Z,52.05
2018-07-22T08:56:35.461Z,52.98
2018-07-22T08:58:40.163Z,51.16
2018-07-22T09:00:44.563Z,51.42
2018-07-22T09:02:49.342Z,51.54
2018-07-22T09:04:54.163Z,51.32
2018-07-22T09:06:59.110Z,50.06
2018-07-22T09:09:06.720Z,50.53
2018-07-22T09:11:11.632Z,50.86
2018-07-22T09:13:16.663Z,50.22
2018-07-22T09:15:21.900Z,48.63
2018-07-22T09:17:27.066Z,47.98
2018-07-22T09:19:32.268Z,47.65
2018-07-22T09:21:37.472Z,48.17
2018-07-22T09:23:42.959Z,47.97
2018-07-22T09:25:47.543Z,47.66
2018-07-22T09:27:55.515Z,48.19
2018-07-22T09:30:00.609Z,47.09
2018-07-22T09:32:05.672Z,46.14
2018-07-22T09:34:10.546Z,43.62
2018-07-22T09:36:15.568Z,43.02
2018-07-22T09:38:20.460Z,44.08
2018-07-22T09:40:25.398Z,44.13
2018-07-22T09:42:30.417Z,44.71
2018-07-22T09:44:35.456Z,44.66
2018-07-22T09:46:40.748Z,43.82
2018-07-22T09:48:45.927Z,43.96
2018-07-22T09:50:51.325Z,43.37
2018-07-22T09:52:56.297Z,44.18
2018-07-22T09:55:01.695Z,43.36
2018-07-22T09:57:06.873Z,42.98
2018-07-22T09:59:12.321Z,41.90
2018-07-22T10:01:18.308Z,43.09
2018-07-22T10:03:25.100Z,43.66
2018-07-22T10:05:30.193Z,43.33
2018-07-22T10:07:34.926Z,44.29
2018-07-22T10:09:40.664Z,43.52
2018-07-22T10:11:45.665Z,42.71
2018-07-22T10:13:50.685Z,43.95
2018-07-22T10:15:55.830Z,42.37
2018-07-22T10:18:00.939Z,42.56
2018-07-22T10:20:05.862Z,42.51
2018-07-22T10:22:10.904Z,42.29
2018-07-22T10:24:16.231Z,41.95
2018-07-22T10:26:21.387Z,42.07
2018-07-22T10:28:26.338Z,42.61
2018-07-22T10:30:31.529Z,42.67
2018-07-22T10:32:37.429Z,41.53
2018-07-22T10:34:42.667Z,41.66
2018-07-22T10:36:47.816Z,42.58
2018-07-22T10:38:52.528Z,40.97
2018-07-22T10:40:58.205Z,41.52
2018-07-22T10:43:03.351Z,42.26
2018-07-22T10:45:08.310Z,41.28
2018-07-22T10:47:13.741Z,40.37
2018-07-22T10:49:21.496Z,41.33
2018-07-22T10:51:26.605Z,44.50
2018-07-22T10:53:31.762Z,42.27
2018-07-22T10:55:36.832Z,41.27
2018-07-22T10:57:42.565Z,44.86
2018-07-22T10:59:47.460Z,42.46
2018-07-22T11:01:52.368Z,44.42
2018-07-22T11:03:59.252Z,46.24
2018-07-22T11:06:04.336Z,42.62
2018-07-22T11:08:09.168Z,40.93
2018-07-22T11:10:14.727Z,42.25
2018-07-22T11:12:19.710Z,41.75
2018-07-22T11:14:24.881Z,42.43
2018-07-22T11:16:29.839Z,42.59
2018-07-22T11:18:34.942Z,41.42
2018-07-22T11:20:40.157Z,40.42
2018-07-22T11:22:45.362Z,40.40
2018-07-22T11:24:50.742Z,39.89
2018-07-22T11:26:55.808Z,40.39
2018-07-22T11:29:00.845Z,39.85
2018-07-22T11:31:06.065Z,40.45
2018-07-22T11:33:11.246Z,39.05
2018-07-22T11:35:16.081Z,40.01
2018-07-22T11:37:21.378Z,38.81
2018-07-22T11:39:26.350Z,39.29
2018-07-22T11:41:31.421Z,38.22
2018-07-22T11:43:36.426Z,39.28
2018-07-22T11:45:41.285Z,38.80
2018-07-22T11:47:46.279Z,39.01
2018-07-22T11:49:51.212Z,39.14
2018-07-22T11:51:56.548Z,39.12
2018-07-22T11:54:01.583Z,39.18
2018-07-22T11:56:07.457Z,38.70
2018-07-22T11:58:12.981Z,38.29
2018-07-22T12:00:18.473Z,39.04
2018-07-22T12:02:23.553Z,39.71
2018-07-22T12:04:28.495Z,39.89
2018-07-22T12:06:33.488Z,40.71
2018-07-22T12:08:39.337Z,44.86
2018-07-22T12:10:44.319Z,46.08
2018-07-22T12:12:49.410Z,41.06
2018-07-22T12:14:54.364Z,49.60
2018-07-22T12:16:59.357Z,41.69
2018-07-22T12:19:04.192Z,46.19
2018-07-22T12:21:09.096Z,40.96
2018-07-22T12:23:13.924Z,41.51
2018-07-22T12:25:18.941Z,41.03
2018-07-22T12:27:23.917Z,41.47
2018-07-22T12:29:28.996Z,44.09
2018-07-22T12:31:34.153Z,40.49
2018-07-22T12:33:39.747Z,39.83
2018-07-22T12:35:44.930Z,41.13
2018-07-22T12:37:49.924Z,39.83
2018-07-22T12:39:54.999Z,38.88
2018-07-22T12:42:00.179Z,39.31
2018-07-22T12:44:05.193Z,38.78
2018-07-22T12:46:10.240Z,40.14
2018-07-22T12:48:15.305Z,41.79
2018-07-22T12:50:20.180Z,39.79
2018-07-22T12:52:25.767Z,39.84
2018-07-22T12:54:30.912Z,41.48
2018-07-22T12:56:35.967Z,41.42
2018-07-22T12:58:41.138Z,38.60
2018-07-22T13:00:46.308Z,41.54
2018-07-22T13:02:51.341Z,41.21
2018-07-22T13:04:56.556Z,40.48
2018-07-22T13:07:01.786Z,39.96
2018-07-22T13:09:09.988Z,39.63
2018-07-22T13:11:15.575Z,42.41
2018-07-22T13:13:20.491Z,39.83
2018-07-22T13:15:25.417Z,40.27
2018-07-22T13:17:30.525Z,40.28
2018-07-22T13:19:37.388Z,39.88
2018-07-22T13:21:42.339Z,40.73
2018-07-22T13:23:48.199Z,40.27
2018-07-22T13:25:53.334Z,39.32
2018-07-22T13:27:58.645Z,39.10
2018-07-22T13:30:03.694Z,39.00
2018-07-22T13:32:08.861Z,38.03
2018-07-22T13:34:14.132Z,37.73
2018-07-22T13:36:19.269Z,39.30
2018-07-22T13:38:24.636Z,37.69
2018-07-22T13:40:29.666Z,39.36
2018-07-22T13:42:34.961Z,38.01
2018-07-22T13:44:40.260Z,36.66
2018-07-22T13:46:45.865Z,37.83
2018-07-22T13:48:51.173Z,37.79
2018-07-22T13:50:56.165Z,38.92
2018-07-22T13:53:01.213Z,37.75
2018-07-22T13:55:06.447Z,37.22
2018-07-22T13:57:11.136Z,37.95
2018-07-22T13:59:16.645Z,37.94
2018-07-22T14:01:21.766Z,37.65
2018-07-22T14:03:29.810Z,38.31
2018-07-22T14:05:35.401Z,38.08
2018-07-22T14:07:41.129Z,37.95
2018-07-22T14:09:46.441Z,39.25
2018-07-22T14:11:51.725Z,38.08
2018-07-22T14:13:57.628Z,38.71
2018-07-22T14:16:02.811Z,38.74
2018-07-22T14:18:08.194Z,39.45
2018-07-22T14:20:13.508Z,41.15
2018-07-22T14:22:18.767Z,40.60
2018-07-22T14:24:24.108Z,39.06
2018-07-22T14:26:29.319Z,40.28
2018-07-22T14:28:34.752Z,41.30
2018-07-22T14:30:39.893Z,39.78
2018-07-22T14:32:45.079Z,40.38
2018-07-22T14:34:50.333Z,39.30
2018-07-22T14:36:55.807Z,39.67
2018-07-22T14:39:01.176Z,40.09
2018-07-22T14:41:06.726Z,40.83
2018-07-22T14:43:11.917Z,40.04
2018-07-22T14:45:17.069Z,40.04
2018-07-22T14:47:22.164Z,40.10
2018-07-22T14:49:27.431Z,41.07
2018-07-22T14:51:32.936Z,42.25
2018-07-22T14:53:37.907Z,41.40
2018-07-22T14:55:42.906Z,41.02
2018-07-22T14:57:48.094Z,41.56
2018-07-22T14:59:53.215Z,42.01
2018-07-22T15:01:58.335Z,41.83
2018-07-22T15:04:05.486Z,42.17
2018-07-22T15:06:10.678Z,41.43
2018-07-22T15:08:18.014Z,40.89
2018-07-22T15:10:24.788Z,41.67
2018-07-22T15:12:31.297Z,41.22
2018-07-22T15:14:36.810Z,41.77
2018-07-22T15:16:43.216Z,41.90
2018-07-22T15:18:49.178Z,41.72
2018-07-22T15:20:54.383Z,40.64
2018-07-22T15:23:00.233Z,41.37
2018-07-22T15:25:07.683Z,41.26
2018-07-22T15:27:12.890Z,41.55
2018-07-22T15:29:18.894Z,40.23
2018-07-22T15:31:25.670Z,40.82
2018-07-22T15:33:30.686Z,40.17
2018-07-22T15:35:35.864Z,40.82
2018-07-22T15:37:40.865Z,40.51
2018-07-22T15:39:46.114Z,41.86
2018-07-22T15:41:53.912Z,41.65
2018-07-22T15:44:01.973Z,42.01
2018-07-22T15:46:08.629Z,40.22
2018-07-22T15:48:14.344Z,42.17
2018-07-22T15:50:20.423Z,40.20
2018-07-22T15:52:27.956Z,39.35
2018-07-22T15:54:34.190Z,39.23
2018-07-22T15:56:39.104Z,39.46
2018-07-22T15:58:45.659Z,38.66
2018-07-22T16:00:52.655Z,38.46
2018-07-22T16:03:00.894Z,39.91
2018-07-22T16:05:07.983Z,39.97
2018-07-22T16:07:13.227Z,39.46
2018-07-22T16:09:19.345Z,39.45
2018-07-22T16:11:26.071Z,37.70
2018-07-22T16:13:31.707Z,38.26
2018-07-22T16:15:39.450Z,37.86
2018-07-22T16:17:46.163Z,38.04
2018-07-22T16:19:51.960Z,37.94
2018-07-22T16:21:57.039Z,36.23
2018-07-22T16:24:02.680Z,38.20
2018-07-22T16:26:08.523Z,37.20
2018-07-22T16:28:14.543Z,37.56
2018-07-22T16:30:19.504Z,37.69
2018-07-22T16:32:24.478Z,39.49
2018-07-22T16:34:30.733Z,38.68
2018-07-22T16:36:35.764Z,39.48
2018-07-22T16:38:41.957Z,39.28
2018-07-22T16:40:49.974Z,39.29
2018-07-22T16:42:55.953Z,39.71
2018-07-22T16:45:02.047Z,40.77
2018-07-22T16:47:08.226Z,40.42
2018-07-22T16:49:14.382Z,40.45
2018-07-22T16:51:23.642Z,41.23
2018-07-22T16:53:30.800Z,41.24
2018-07-22T16:55:37.231Z,40.78
2018-07-22T16:57:44.172Z,40.11
2018-07-22T16:59:50.240Z,41.86
2018-07-22T17:01:58.240Z,41.92
2018-07-22T17:04:04.137Z,42.23
2018-07-22T17:06:09.407Z,42.09
2018-07-22T17:08:14.601Z,43.07
2018-07-22T17:10:19.828Z,42.34
2018-07-22T17:12:24.976Z,41.07
2018-07-22T17:14:30.164Z,41.15
2018-07-22T17:16:35.392Z,41.88
2018-07-22T17:18:40.522Z,42.04
2018-07-22T17:20:45.493Z,41.61
2018-07-22T17:22:50.696Z,40.76
2018-07-22T17:24:55.816Z,41.47
2018-07-22T17:27:00.991Z,41.42
2018-07-22T17:29:06.188Z,41.27
2018-07-22T17:31:11.261Z,41.11
2018-07-22T17:33:16.769Z,42.43
2018-07-22T17:35:21.790Z,40.62
2018-07-22T17:37:27.393Z,39.96
2018-07-22T17:39:32.234Z,40.12
2018-07-22T17:41:37.399Z,39.81
2018-07-22T17:43:43.453Z,40.58
2018-07-22T17:45:48.333Z,40.59
2018-07-22T17:47:54.149Z,40.91
2018-07-22T17:49:59.341Z,40.71
2018-07-22T17:52:04.562Z,40.31
2018-07-22T17:54:09.890Z,40.94
2018-07-22T17:56:15.960Z,39.96
2018-07-22T17:58:22.393Z,40.07
2018-07-22T18:00:28.749Z,40.18
2018-07-22T18:02:34.157Z,39.83
2018-07-22T18:04:39.679Z,39.73
2018-07-22T18:06:47.017Z,41.11
2018-07-22T18:08:54.272Z,42.19
2018-07-22T18:10:59.544Z,43.27
2018-07-22T18:13:04.646Z,42.68
2018-07-22T18:15:10.260Z,43.09
2018-07-22T18:17:15.577Z,43.32
2018-07-22T18:19:20.730Z,43.98
2018-07-22T18:21:27.560Z,43.59
2018-07-22T18:23:35.926Z,43.81
2018-07-22T18:25:42.770Z,44.08
2018-07-22T18:27:51.639Z,44.51
2018-07-22T18:30:00.054Z,44.83
2018-07-22T18:32:07.092Z,45.20
2018-07-22T18:34:13.803Z,45.22
2018-07-22T18:36:21.770Z,45.10
2018-07-22T18:38:29.813Z,45.69
2018-07-22T18:40:36.798Z,45.77
2018-07-22T18:42:43.950Z,45.58
2018-07-22T18:44:50.737Z,45.85
2018-07-22T18:46:57.724Z,46.90
2018-07-22T18:49:04.552Z,46.84
2018-07-22T18:51:15.715Z,45.95
2018-07-22T18:53:23.053Z,45.36
2018-07-22T18:55:31.520Z,45.87
2018-07-22T18:57:40.414Z,45.91
2018-07-22T18:59:50.019Z,46.95
2018-07-22T19:02:00.808Z,46.85
2018-07-22T19:06:25.892Z,47.79
2018-07-22T19:08:34.927Z,48.26
2018-07-22T19:10:44.864Z,47.82
2018-07-22T19:12:53.760Z,47.51
2018-07-22T19:15:03.285Z,47.76
2018-07-22T19:17:13.611Z,49.34
2018-07-22T19:19:23.530Z,50.02
2018-07-22T19:21:32.548Z,49.18
2018-07-22T19:23:39.527Z,48.93
2018-07-22T19:32:11.726Z,44.55
2018-07-22T19:34:20.098Z,44.42
2018-07-22T19:36:28.896Z,44.58
2018-07-22T19:38:38.641Z,44.24
2018-07-22T19:40:48.290Z,43.93
2018-07-22T19:43:00.891Z,43.76
2018-07-22T19:45:09.543Z,44.85
2018-07-22T19:47:19.777Z,44.94
2018-07-22T19:49:27.641Z,44.23
2018-07-22T19:51:38.715Z,45.23
2018-07-22T19:53:45.729Z,44.50
2018-07-22T19:55:52.295Z,45.35
2018-07-22T19:58:00.075Z,45.31
2018-07-22T20:00:07.356Z,44.87
2018-07-22T20:02:14.107Z,44.55
2018-07-22T20:04:21.747Z,44.86
2018-07-22T20:06:28.376Z,45.63
2018-07-22T20:08:35.921Z,45.25
2018-07-22T20:10:41.715Z,45.32
2018-07-22T20:12:47.543Z,45.94
2018-07-22T20:14:53.069Z,46.52
2018-07-22T20:16:58.853Z,45.57
2018-07-22T20:19:04.425Z,46.17
2018-07-22T20:23:16.585Z,45.31
2018-07-22T20:25:21.838Z,46.35
2018-07-22T20:27:27.764Z,45.64
2018-07-22T20:29:33.261Z,47.68
2018-07-22T20:31:38.108Z,46.67
2018-07-22T20:33:44.020Z,46.61
2018-07-22T20:35:49.071Z,47.14
2018-07-22T20:38:01.586Z,47.75
2018-07-22T20:40:07.374Z,46.85
2018-07-22T20:42:16.032Z,47.48
2018-07-22T20:44:26.850Z,47.49
2018-07-22T20:46:31.877Z,47.27
2018-07-22T20:48:39.488Z,47.72
2018-07-22T20:50:44.884Z,47.93
2018-07-22T20:52:54.960Z,48.12
2018-07-22T20:55:00.446Z,47.61
2018-07-22T20:57:05.637Z,47.71
2018-07-22T20:59:11.181Z,47.16
2018-07-22T21:01:16.110Z,48.70
2018-07-22T21:03:21.128Z,48.03
2018-07-22T21:05:26.274Z,48.34
2018-07-22T21:07:31.191Z,49.04
2018-07-22T21:09:36.108Z,48.52
2018-07-22T21:13:50.434Z,48.84
2018-07-22T21:15:55.608Z,48.84
2018-07-22T21:18:00.817Z,48.93
2018-07-22T21:20:06.243Z,50.14
2018-07-22T21:22:11.132Z,48.93
2018-07-22T21:24:16.176Z,49.98
2018-07-22T21:26:21.080Z,49.84
2018-07-22T21:28:25.994Z,51.10
2018-07-22T21:30:31.211Z,50.56
2018-07-22T21:32:36.164Z,50.66
2018-07-22T21:34:41.066Z,50.92
2018-07-22T21:36:45.993Z,51.52
2018-07-22T21:38:50.932Z,51.28
2018-07-22T21:40:55.971Z,51.13
2018-07-22T21:43:00.951Z,51.38
2018-07-22T21:45:06.657Z,52.40
2018-07-22T21:47:12.488Z,51.87
2018-07-22T21:49:17.547Z,52.39
2018-07-22T21:51:22.723Z,52.66
2018-07-22T21:53:28.046Z,52.42
2018-07-22T21:55:32.872Z,53.87
2018-07-22T21:57:37.971Z,53.48
2018-07-22T21:59:43.356Z,53.74
2018-07-22T22:01:48.154Z,53.02
2018-07-22T22:03:53.107Z,53.95
2018-07-22T22:05:58.015Z,53.96
2018-07-22T22:08:03.088Z,54.53
2018-07-22T22:10:08.066Z,53.94
2018-07-22T22:12:13.244Z,54.23
2018-07-22T22:14:18.109Z,55.32
2018-07-22T22:16:22.987Z,55.68
2018-07-22T22:18:27.832Z,55.27
2018-07-22T22:20:32.941Z,55.30
2018-07-22T22:22:37.714Z,56.29
2018-07-22T22:24:42.762Z,56.25
2018-07-22T22:26:47.641Z,56.72
2018-07-22T22:28:52.528Z,56.63
2018-07-22T22:30:57.450Z,57.48
2018-07-22T22:33:02.357Z,57.03
2018-07-22T22:35:07.276Z,56.74
2018-07-22T22:37:12.102Z,56.89
2018-07-22T22:39:16.906Z,57.73
2018-07-22T22:41:22.608Z,57.40
2018-07-22T22:43:27.419Z,59.10
2018-07-22T22:45:33.048Z,57.78
2018-07-22T22:47:37.717Z,58.32
2018-07-22T22:49:42.563Z,58.26
2018-07-22T22:51:47.314Z,57.80
2018-07-22T22:53:52.392Z,58.30
2018-07-22T22:55:57.322Z,58.44
2018-07-22T22:59:19.401Z,58.17
2018-07-22T23:01:24.428Z,58.46
2018-07-22T23:03:29.344Z,58.57
2018-07-22T23:05:34.687Z,59.40
2018-07-22T23:07:39.542Z,59.27
2018-07-22T23:09:44.899Z,58.97
2018-07-22T23:11:49.700Z,59.52
2018-07-22T23:13:54.518Z,59.06
2018-07-22T23:15:59.342Z,59.32
2018-07-22T23:18:04.123Z,58.47
2018-07-22T23:20:08.890Z,58.65
2018-07-22T23:22:13.733Z,59.52
2018-07-22T23:24:18.499Z,59.03
2018-07-22T23:26:23.582Z,59.33
2018-07-22T23:28:28.304Z,59.07
2018-07-22T23:30:32.992Z,59.37
2018-07-22T23:32:37.706Z,59.95
2018-07-22T23:34:42.445Z,59.20
2018-07-22T23:36:47.242Z,59.27
2018-07-22T23:38:51.997Z,59.84
2018-07-22T23:40:56.823Z,60.32
2018-07-22T23:43:01.595Z,60.57
2018-07-22T23:45:06.587Z,60.50
2018-07-22T23:49:21.949Z,60.12
2018-07-22T23:51:26.699Z,61.77
2018-07-22T23:53:31.822Z,60.76
2018-07-22T23:55:36.660Z,60.97
2018-07-22T23:57:41.414Z,61.50
2018-07-22T23:59:46.149Z,61.15
